sensor_id;sensor_type;location;lat;lon;timestamp;P1;durP1;ratioP1;P2;durP2;ratioP2
36747;SDS011;22716;51.556;5.080;2024-03-07T00:00:15;35.03;;;23.70;;
36747;SDS011;22716;51.556;5.080;2024-03-07T00:02:47;43.70;;;26.95;;
36747;SDS011;22716;51.556;5.080;2024-03-07T00:05:18;41.72;;;27.58;;
36747;SDS011;22716;51.556;5.080;2024-03-07T00:07:49;36.53;;;24.27;;
36747;SDS011;22716;51.556;5.080;2024-03-07T00:10:18;39.33;;;26.33;;
36747;SDS011;22716;51.556;5.080;2024-03-07T00:12:51;41.43;;;26.60;;
36747;SDS011;22716;51.556;5.080;2024-03-07T00:15:19;38.72;;;25.27;;
36747;SDS011;22716;51.556;5.080;2024-03-07T00:17:48;34.65;;;23.67;;
36747;SDS011;22716;51.556;5.080;2024-03-07T00:20:17;38.97;;;26.27;;
36747;SDS011;22716;51.556;5.080;2024-03-07T00:22:45;37.72;;;26.50;;
36747;SDS011;22716;51.556;5.080;2024-03-07T00:25:14;39.13;;;25.87;;
36747;SDS011;22716;51.556;5.080;2024-03-07T00:27:45;39.93;;;26.67;;
36747;SDS011;22716;51.556;5.080;2024-03-07T00:30:16;38.88;;;24.63;;
36747;SDS011;22716;51.556;5.080;2024-03-07T00:32:46;42.22;;;25.65;;
36747;SDS011;22716;51.556;5.080;2024-03-07T00:35:14;41.38;;;24.55;;
36747;SDS011;22716;51.556;5.080;2024-03-07T00:37:44;40.60;;;25.63;;
36747;SDS011;22716;51.556;5.080;2024-03-07T00:40:12;44.33;;;25.47;;
36747;SDS011;22716;51.556;5.080;2024-03-07T00:42:42;42.07;;;25.97;;
36747;SDS011;22716;51.556;5.080;2024-03-07T00:45:10;43.37;;;26.80;;
36747;SDS011;22716;51.556;5.080;2024-03-07T00:47:41;37.70;;;25.15;;
36747;SDS011;22716;51.556;5.080;2024-03-07T00:50:10;42.28;;;25.95;;
36747;SDS011;22716;51.556;5.080;2024-03-07T00:52:39;38.05;;;25.65;;
36747;SDS011;22716;51.556;5.080;2024-03-07T00:55:08;39.80;;;25.00;;
36747;SDS011;22716;51.556;5.080;2024-03-07T00:57:37;45.23;;;27.27;;
36747;SDS011;22716;51.556;5.080;2024-03-07T01:00:06;48.50;;;27.03;;
36747;SDS011;22716;51.556;5.080;2024-03-07T01:02:42;45.78;;;27.25;;
36747;SDS011;22716;51.556;5.080;2024-03-07T01:05:12;40.97;;;26.47;;
36747;SDS011;22716;51.556;5.080;2024-03-07T01:07:43;45.90;;;26.92;;
36747;SDS011;22716;51.556;5.080;2024-03-07T01:10:12;48.85;;;27.80;;
36747;SDS011;22716;51.556;5.080;2024-03-07T01:12:41;46.03;;;25.90;;
36747;SDS011;22716;51.556;5.080;2024-03-07T01:15:11;42.97;;;26.33;;
36747;SDS011;22716;51.556;5.080;2024-03-07T01:17:43;45.45;;;26.88;;
36747;SDS011;22716;51.556;5.080;2024-03-07T01:20:11;42.90;;;25.48;;
36747;SDS011;22716;51.556;5.080;2024-03-07T01:22:40;46.33;;;26.80;;
36747;SDS011;22716;51.556;5.080;2024-03-07T01:25:09;40.17;;;25.52;;
36747;SDS011;22716;51.556;5.080;2024-03-07T01:27:37;47.88;;;27.73;;
36747;SDS011;22716;51.556;5.080;2024-03-07T01:30:07;45.77;;;26.17;;
36747;SDS011;22716;51.556;5.080;2024-03-07T01:32:36;50.30;;;27.88;;
36747;SDS011;22716;51.556;5.080;2024-03-07T01:35:08;43.33;;;25.13;;
36747;SDS011;22716;51.556;5.080;2024-03-07T01:37:38;44.77;;;27.10;;
36747;SDS011;22716;51.556;5.080;2024-03-07T01:40:08;48.07;;;28.47;;
36747;SDS011;22716;51.556;5.080;2024-03-07T01:42:37;44.10;;;26.75;;
36747;SDS011;22716;51.556;5.080;2024-03-07T01:45:06;49.57;;;27.60;;
36747;SDS011;22716;51.556;5.080;2024-03-07T01:47:36;42.03;;;25.40;;
36747;SDS011;22716;51.556;5.080;2024-03-07T01:50:08;51.77;;;26.97;;
36747;SDS011;22716;51.556;5.080;2024-03-07T01:52:38;43.80;;;25.37;;
36747;SDS011;22716;51.556;5.080;2024-03-07T01:55:08;42.00;;;25.55;;
36747;SDS011;22716;51.556;5.080;2024-03-07T01:57:39;45.03;;;27.43;;
36747;SDS011;22716;51.556;5.080;2024-03-07T02:00:09;38.27;;;24.67;;
36747;SDS011;22716;51.556;5.080;2024-03-07T02:02:39;46.10;;;25.95;;
36747;SDS011;22716;51.556;5.080;2024-03-07T02:05:10;49.53;;;29.33;;
36747;SDS011;22716;51.556;5.080;2024-03-07T02:07:39;46.23;;;28.37;;
36747;SDS011;22716;51.556;5.080;2024-03-07T02:10:08;44.75;;;25.67;;
36747;SDS011;22716;51.556;5.080;2024-03-07T02:12:39;41.57;;;25.13;;
36747;SDS011;22716;51.556;5.080;2024-03-07T02:15:08;44.90;;;28.27;;
36747;SDS011;22716;51.556;5.080;2024-03-07T02:17:39;46.45;;;25.83;;
36747;SDS011;22716;51.556;5.080;2024-03-07T02:20:11;45.43;;;27.50;;
36747;SDS011;22716;51.556;5.080;2024-03-07T02:22:43;41.23;;;28.03;;
36747;SDS011;22716;51.556;5.080;2024-03-07T02:25:12;41.83;;;27.73;;
36747;SDS011;22716;51.556;5.080;2024-03-07T02:27:42;42.78;;;28.20;;
36747;SDS011;22716;51.556;5.080;2024-03-07T02:30:11;42.87;;;27.90;;
36747;SDS011;22716;51.556;5.080;2024-03-07T02:32:40;48.30;;;27.07;;
36747;SDS011;22716;51.556;5.080;2024-03-07T02:35:14;54.30;;;28.33;;
36747;SDS011;22716;51.556;5.080;2024-03-07T02:37:46;51.10;;;27.63;;
36747;SDS011;22716;51.556;5.080;2024-03-07T02:40:15;47.27;;;26.97;;
36747;SDS011;22716;51.556;5.080;2024-03-07T02:42:44;42.42;;;26.50;;
36747;SDS011;22716;51.556;5.080;2024-03-07T02:45:13;42.72;;;26.25;;
36747;SDS011;22716;51.556;5.080;2024-03-07T02:47:41;46.07;;;27.50;;
36747;SDS011;22716;51.556;5.080;2024-03-07T02:50:10;49.28;;;28.98;;
36747;SDS011;22716;51.556;5.080;2024-03-07T02:52:40;48.97;;;30.20;;
36747;SDS011;22716;51.556;5.080;2024-03-07T02:55:11;49.33;;;27.48;;
36747;SDS011;22716;51.556;5.080;2024-03-07T02:57:41;49.70;;;27.35;;
36747;SDS011;22716;51.556;5.080;2024-03-07T03:00:10;48.13;;;28.53;;
36747;SDS011;22716;51.556;5.080;2024-03-07T03:02:52;53.87;;;29.03;;
36747;SDS011;22716;51.556;5.080;2024-03-07T03:05:21;51.03;;;30.23;;
36747;SDS011;22716;51.556;5.080;2024-03-07T03:07:50;50.90;;;29.97;;
36747;SDS011;22716;51.556;5.080;2024-03-07T03:10:25;43.88;;;25.83;;
36747;SDS011;22716;51.556;5.080;2024-03-07T03:12:54;44.47;;;28.15;;
36747;SDS011;22716;51.556;5.080;2024-03-07T03:15:24;42.33;;;26.53;;
36747;SDS011;22716;51.556;5.080;2024-03-07T03:17:54;48.03;;;29.80;;
36747;SDS011;22716;51.556;5.080;2024-03-07T03:20:24;48.53;;;28.80;;
36747;SDS011;22716;51.556;5.080;2024-03-07T03:22:59;52.88;;;30.10;;
36747;SDS011;22716;51.556;5.080;2024-03-07T03:25:31;46.77;;;27.30;;
36747;SDS011;22716;51.556;5.080;2024-03-07T03:28:00;49.90;;;28.13;;
36747;SDS011;22716;51.556;5.080;2024-03-07T03:30:29;50.58;;;30.45;;
36747;SDS011;22716;51.556;5.080;2024-03-07T03:32:58;52.50;;;30.83;;
36747;SDS011;22716;51.556;5.080;2024-03-07T03:35:26;58.47;;;29.20;;
36747;SDS011;22716;51.556;5.080;2024-03-07T03:37:55;53.73;;;29.07;;
36747;SDS011;22716;51.556;5.080;2024-03-07T03:40:24;54.60;;;29.50;;
36747;SDS011;22716;51.556;5.080;2024-03-07T03:42:55;53.63;;;30.65;;
36747;SDS011;22716;51.556;5.080;2024-03-07T03:45:24;50.10;;;31.10;;
36747;SDS011;22716;51.556;5.080;2024-03-07T03:47:53;43.45;;;27.15;;
36747;SDS011;22716;51.556;5.080;2024-03-07T03:50:22;44.45;;;26.80;;
36747;SDS011;22716;51.556;5.080;2024-03-07T03:52:51;54.37;;;29.60;;
36747;SDS011;22716;51.556;5.080;2024-03-07T03:55:21;52.03;;;30.50;;
36747;SDS011;22716;51.556;5.080;2024-03-07T03:57:49;51.42;;;31.17;;
36747;SDS011;22716;51.556;5.080;2024-03-07T04:00:21;48.20;;;30.45;;
36747;SDS011;22716;51.556;5.080;2024-03-07T04:02:50;46.07;;;28.97;;
36747;SDS011;22716;51.556;5.080;2024-03-07T04:05:19;54.97;;;30.83;;
36747;SDS011;22716;51.556;5.080;2024-03-07T04:07:48;56.50;;;29.37;;
36747;SDS011;22716;51.556;5.080;2024-03-07T04:10:17;55.73;;;29.13;;
36747;SDS011;22716;51.556;5.080;2024-03-07T04:12:46;47.50;;;27.57;;
36747;SDS011;22716;51.556;5.080;2024-03-07T04:15:15;48.58;;;30.55;;
36747;SDS011;22716;51.556;5.080;2024-03-07T04:17:47;44.37;;;28.73;;
36747;SDS011;22716;51.556;5.080;2024-03-07T04:20:15;51.77;;;29.30;;
36747;SDS011;22716;51.556;5.080;2024-03-07T04:22:45;54.28;;;29.85;;
36747;SDS011;22716;51.556;5.080;2024-03-07T04:25:14;52.17;;;30.05;;
36747;SDS011;22716;51.556;5.080;2024-03-07T04:27:43;51.53;;;29.10;;
36747;SDS011;22716;51.556;5.080;2024-03-07T04:30:12;52.88;;;29.60;;
36747;SDS011;22716;51.556;5.080;2024-03-07T04:32:42;53.63;;;28.63;;
36747;SDS011;22716;51.556;5.080;2024-03-07T04:35:13;48.80;;;28.93;;
36747;SDS011;22716;51.556;5.080;2024-03-07T04:37:42;48.63;;;29.70;;
36747;SDS011;22716;51.556;5.080;2024-03-07T04:40:11;51.23;;;27.20;;
36747;SDS011;22716;51.556;5.080;2024-03-07T04:42:44;53.92;;;31.30;;
36747;SDS011;22716;51.556;5.080;2024-03-07T04:45:14;49.97;;;29.13;;
36747;SDS011;22716;51.556;5.080;2024-03-07T04:47:44;47.57;;;30.40;;
36747;SDS011;22716;51.556;5.080;2024-03-07T04:50:16;46.93;;;29.90;;
36747;SDS011;22716;51.556;5.080;2024-03-07T04:52:45;58.75;;;30.17;;
36747;SDS011;22716;51.556;5.080;2024-03-07T04:55:14;50.88;;;29.45;;
36747;SDS011;22716;51.556;5.080;2024-03-07T04:57:43;50.63;;;29.27;;
36747;SDS011;22716;51.556;5.080;2024-03-07T05:00:12;51.58;;;30.33;;
36747;SDS011;22716;51.556;5.080;2024-03-07T05:02:45;50.47;;;30.53;;
36747;SDS011;22716;51.556;5.080;2024-03-07T05:05:17;52.85;;;30.02;;
36747;SDS011;22716;51.556;5.080;2024-03-07T05:07:48;45.35;;;27.42;;
36747;SDS011;22716;51.556;5.080;2024-03-07T05:10:18;49.27;;;28.67;;
36747;SDS011;22716;51.556;5.080;2024-03-07T05:12:47;56.00;;;32.07;;
36747;SDS011;22716;51.556;5.080;2024-03-07T05:15:16;51.58;;;29.90;;
36747;SDS011;22716;51.556;5.080;2024-03-07T05:17:45;50.00;;;29.43;;
36747;SDS011;22716;51.556;5.080;2024-03-07T05:20:16;50.10;;;29.60;;
36747;SDS011;22716;51.556;5.080;2024-03-07T05:22:45;58.60;;;29.83;;
36747;SDS011;22716;51.556;5.080;2024-03-07T05:25:15;49.77;;;29.37;;
36747;SDS011;22716;51.556;5.080;2024-03-07T05:27:44;58.03;;;34.40;;
36747;SDS011;22716;51.556;5.080;2024-03-07T05:30:15;55.88;;;32.03;;
36747;SDS011;22716;51.556;5.080;2024-03-07T05:32:44;48.00;;;29.90;;
36747;SDS011;22716;51.556;5.080;2024-03-07T05:35:13;45.83;;;28.07;;
36747;SDS011;22716;51.556;5.080;2024-03-07T05:37:44;50.50;;;29.67;;
36747;SDS011;22716;51.556;5.080;2024-03-07T05:40:13;52.17;;;29.50;;
36747;SDS011;22716;51.556;5.080;2024-03-07T05:42:42;49.20;;;29.30;;
36747;SDS011;22716;51.556;5.080;2024-03-07T05:45:10;51.30;;;30.00;;
36747;SDS011;22716;51.556;5.080;2024-03-07T05:47:40;48.05;;;29.02;;
36747;SDS011;22716;51.556;5.080;2024-03-07T05:50:09;50.70;;;30.50;;
36747;SDS011;22716;51.556;5.080;2024-03-07T05:52:39;48.90;;;29.90;;
36747;SDS011;22716;51.556;5.080;2024-03-07T05:55:10;45.80;;;28.40;;
36747;SDS011;22716;51.556;5.080;2024-03-07T05:57:41;54.50;;;31.80;;
36747;SDS011;22716;51.556;5.080;2024-03-07T06:00:11;45.95;;;29.83;;
36747;SDS011;22716;51.556;5.080;2024-03-07T06:02:41;51.67;;;31.73;;
36747;SDS011;22716;51.556;5.080;2024-03-07T06:05:09;52.17;;;28.83;;
36747;SDS011;22716;51.556;5.080;2024-03-07T06:07:41;51.90;;;29.87;;
36747;SDS011;22716;51.556;5.080;2024-03-07T06:10:14;48.40;;;29.30;;
36747;SDS011;22716;51.556;5.080;2024-03-07T06:12:42;56.43;;;30.97;;
36747;SDS011;22716;51.556;5.080;2024-03-07T06:15:11;56.72;;;33.80;;
36747;SDS011;22716;51.556;5.080;2024-03-07T06:17:40;49.73;;;31.20;;
36747;SDS011;22716;51.556;5.080;2024-03-07T06:20:12;61.50;;;31.27;;
36747;SDS011;22716;51.556;5.080;2024-03-07T06:22:48;52.13;;;29.60;;
36747;SDS011;22716;51.556;5.080;2024-03-07T06:25:20;50.27;;;30.27;;
36747;SDS011;22716;51.556;5.080;2024-03-07T06:27:59;50.20;;;29.40;;
36747;SDS011;22716;51.556;5.080;2024-03-07T06:30:34;49.60;;;28.00;;
36747;SDS011;22716;51.556;5.080;2024-03-07T06:33:04;53.47;;;30.10;;
36747;SDS011;22716;51.556;5.080;2024-03-07T06:35:33;51.30;;;30.10;;
36747;SDS011;22716;51.556;5.080;2024-03-07T06:38:04;56.87;;;30.73;;
36747;SDS011;22716;51.556;5.080;2024-03-07T06:40:36;50.53;;;29.60;;
36747;SDS011;22716;51.556;5.080;2024-03-07T06:43:05;54.13;;;30.83;;
36747;SDS011;22716;51.556;5.080;2024-03-07T06:45:36;49.80;;;29.57;;
36747;SDS011;22716;51.556;5.080;2024-03-07T06:48:05;47.30;;;30.07;;
36747;SDS011;22716;51.556;5.080;2024-03-07T06:50:35;50.93;;;28.77;;
36747;SDS011;22716;51.556;5.080;2024-03-07T06:53:04;53.80;;;31.40;;
36747;SDS011;22716;51.556;5.080;2024-03-07T06:55:37;52.40;;;30.47;;
36747;SDS011;22716;51.556;5.080;2024-03-07T06:58:06;50.75;;;30.10;;
36747;SDS011;22716;51.556;5.080;2024-03-07T07:00:35;51.10;;;32.77;;
36747;SDS011;22716;51.556;5.080;2024-03-07T07:03:05;53.87;;;31.23;;
36747;SDS011;22716;51.556;5.080;2024-03-07T07:05:35;53.30;;;30.37;;
36747;SDS011;22716;51.556;5.080;2024-03-07T07:08:04;50.70;;;30.43;;
36747;SDS011;22716;51.556;5.080;2024-03-07T07:10:37;48.17;;;29.17;;
36747;SDS011;22716;51.556;5.080;2024-03-07T07:13:05;49.73;;;28.77;;
36747;SDS011;22716;51.556;5.080;2024-03-07T07:15:35;47.60;;;29.13;;
36747;SDS011;22716;51.556;5.080;2024-03-07T07:18:04;49.27;;;29.83;;
36747;SDS011;22716;51.556;5.080;2024-03-07T07:20:35;53.20;;;30.07;;
36747;SDS011;22716;51.556;5.080;2024-03-07T07:23:04;44.80;;;27.80;;
36747;SDS011;22716;51.556;5.080;2024-03-07T07:25:33;51.07;;;29.97;;
36747;SDS011;22716;51.556;5.080;2024-03-07T07:28:05;45.78;;;27.50;;
36747;SDS011;22716;51.556;5.080;2024-03-07T07:30:35;49.97;;;27.60;;
36747;SDS011;22716;51.556;5.080;2024-03-07T07:33:04;41.70;;;28.27;;
36747;SDS011;22716;51.556;5.080;2024-03-07T07:35:32;46.90;;;29.00;;
36747;SDS011;22716;51.556;5.080;2024-03-07T07:38:02;50.80;;;28.10;;
36747;SDS011;22716;51.556;5.080;2024-03-07T07:40:32;43.33;;;27.80;;
36747;SDS011;22716;51.556;5.080;2024-03-07T07:43:01;43.25;;;27.52;;
36747;SDS011;22716;51.556;5.080;2024-03-07T07:45:32;47.75;;;27.27;;
36747;SDS011;22716;51.556;5.080;2024-03-07T07:48:01;46.23;;;26.57;;
36747;SDS011;22716;51.556;5.080;2024-03-07T07:50:30;41.78;;;25.67;;
36747;SDS011;22716;51.556;5.080;2024-03-07T07:53:00;48.78;;;28.48;;
36747;SDS011;22716;51.556;5.080;2024-03-07T07:55:32;42.30;;;26.70;;
36747;SDS011;22716;51.556;5.080;2024-03-07T07:58:01;42.07;;;25.73;;
36747;SDS011;22716;51.556;5.080;2024-03-07T08:00:33;40.30;;;25.90;;
36747;SDS011;22716;51.556;5.080;2024-03-07T08:03:03;47.92;;;25.73;;
36747;SDS011;22716;51.556;5.080;2024-03-07T08:05:33;40.10;;;25.60;;
36747;SDS011;22716;51.556;5.080;2024-03-07T08:08:04;44.05;;;26.92;;
36747;SDS011;22716;51.556;5.080;2024-03-07T08:10:38;40.97;;;27.33;;
36747;SDS011;22716;51.556;5.080;2024-03-07T08:13:11;46.70;;;27.13;;
36747;SDS011;22716;51.556;5.080;2024-03-07T08:15:42;39.33;;;27.53;;
36747;SDS011;22716;51.556;5.080;2024-03-07T08:18:11;41.03;;;26.35;;
36747;SDS011;22716;51.556;5.080;2024-03-07T08:20:40;37.45;;;24.52;;
36747;SDS011;22716;51.556;5.080;2024-03-07T08:23:08;35.23;;;22.47;;
36747;SDS011;22716;51.556;5.080;2024-03-07T08:25:38;38.00;;;25.38;;
36747;SDS011;22716;51.556;5.080;2024-03-07T08:28:07;36.80;;;24.15;;
36747;SDS011;22716;51.556;5.080;2024-03-07T08:30:36;42.00;;;23.00;;
36747;SDS011;22716;51.556;5.080;2024-03-07T08:33:09;36.60;;;22.95;;
36747;SDS011;22716;51.556;5.080;2024-03-07T08:35:39;36.77;;;23.20;;
36747;SDS011;22716;51.556;5.080;2024-03-07T08:38:07;32.97;;;22.27;;
36747;SDS011;22716;51.556;5.080;2024-03-07T08:40:37;35.13;;;25.37;;
36747;SDS011;22716;51.556;5.080;2024-03-07T08:43:06;37.53;;;21.63;;
36747;SDS011;22716;51.556;5.080;2024-03-07T08:45:35;36.15;;;22.40;;
36747;SDS011;22716;51.556;5.080;2024-03-07T08:48:05;41.40;;;24.05;;
36747;SDS011;22716;51.556;5.080;2024-03-07T08:50:37;34.40;;;22.77;;
36747;SDS011;22716;51.556;5.080;2024-03-07T08:53:06;30.20;;;21.67;;
36747;SDS011;22716;51.556;5.080;2024-03-07T08:55:35;31.65;;;21.02;;
36747;SDS011;22716;51.556;5.080;2024-03-07T08:58:04;35.58;;;21.55;;
36747;SDS011;22716;51.556;5.080;2024-03-07T09:00:34;37.72;;;22.75;;
36747;SDS011;22716;51.556;5.080;2024-03-07T09:03:03;33.93;;;19.20;;
36747;SDS011;22716;51.556;5.080;2024-03-07T09:05:37;34.93;;;20.60;;
36747;SDS011;22716;51.556;5.080;2024-03-07T09:08:07;32.30;;;19.85;;
36747;SDS011;22716;51.556;5.080;2024-03-07T09:10:36;27.27;;;19.65;;
36747;SDS011;22716;51.556;5.080;2024-03-07T09:13:06;30.92;;;20.08;;
36747;SDS011;22716;51.556;5.080;2024-03-07T09:15:35;32.65;;;18.58;;
36747;SDS011;22716;51.556;5.080;2024-03-07T09:18:04;27.50;;;19.15;;
36747;SDS011;22716;51.556;5.080;2024-03-07T09:20:33;31.63;;;19.63;;
36747;SDS011;22716;51.556;5.080;2024-03-07T09:23:04;33.03;;;19.77;;
36747;SDS011;22716;51.556;5.080;2024-03-07T09:25:33;30.55;;;18.90;;
36747;SDS011;22716;51.556;5.080;2024-03-07T09:28:02;27.73;;;18.70;;
36747;SDS011;22716;51.556;5.080;2024-03-07T09:30:31;27.67;;;18.10;;
36747;SDS011;22716;51.556;5.080;2024-03-07T09:33:03;28.27;;;17.93;;
36747;SDS011;22716;51.556;5.080;2024-03-07T09:35:36;27.02;;;18.23;;
36747;SDS011;22716;51.556;5.080;2024-03-07T09:38:07;27.52;;;18.80;;
36747;SDS011;22716;51.556;5.080;2024-03-07T09:40:36;28.98;;;17.58;;
36747;SDS011;22716;51.556;5.080;2024-03-07T09:43:06;26.02;;;17.48;;
36747;SDS011;22716;51.556;5.080;2024-03-07T09:45:38;27.70;;;16.35;;
36747;SDS011;22716;51.556;5.080;2024-03-07T09:48:08;24.58;;;15.27;;
36747;SDS011;22716;51.556;5.080;2024-03-07T09:50:38;22.42;;;15.90;;
36747;SDS011;22716;51.556;5.080;2024-03-07T09:53:11;26.83;;;17.63;;
36747;SDS011;22716;51.556;5.080;2024-03-07T09:55:40;24.25;;;17.23;;
36747;SDS011;22716;51.556;5.080;2024-03-07T09:58:08;24.77;;;16.48;;
36747;SDS011;22716;51.556;5.080;2024-03-07T10:00:40;24.45;;;14.85;;
36747;SDS011;22716;51.556;5.080;2024-03-07T10:03:10;23.55;;;16.02;;
36747;SDS011;22716;51.556;5.080;2024-03-07T10:05:41;26.95;;;17.85;;
36747;SDS011;22716;51.556;5.080;2024-03-07T10:08:13;22.08;;;15.82;;
36747;SDS011;22716;51.556;5.080;2024-03-07T10:10:43;20.88;;;13.93;;
36747;SDS011;22716;51.556;5.080;2024-03-07T10:13:13;20.27;;;12.70;;
36747;SDS011;22716;51.556;5.080;2024-03-07T10:15:43;19.83;;;12.77;;
36747;SDS011;22716;51.556;5.080;2024-03-07T10:18:12;19.35;;;12.18;;
36747;SDS011;22716;51.556;5.080;2024-03-07T10:20:44;18.88;;;13.00;;
36747;SDS011;22716;51.556;5.080;2024-03-07T10:23:21;17.40;;;12.02;;
36747;SDS011;22716;51.556;5.080;2024-03-07T10:25:50;22.27;;;13.35;;
36747;SDS011;22716;51.556;5.080;2024-03-07T10:28:20;20.13;;;13.30;;
36747;SDS011;22716;51.556;5.080;2024-03-07T10:30:49;16.67;;;11.87;;
36747;SDS011;22716;51.556;5.080;2024-03-07T10:33:18;20.52;;;13.95;;
36747;SDS011;22716;51.556;5.080;2024-03-07T10:35:49;19.95;;;13.68;;
36747;SDS011;22716;51.556;5.080;2024-03-07T10:38:21;18.48;;;13.75;;
36747;SDS011;22716;51.556;5.080;2024-03-07T10:40:52;21.90;;;13.35;;
36747;SDS011;22716;51.556;5.080;2024-03-07T10:43:22;17.47;;;13.57;;
36747;SDS011;22716;51.556;5.080;2024-03-07T10:45:51;21.50;;;13.48;;
36747;SDS011;22716;51.556;5.080;2024-03-07T10:48:21;18.42;;;14.05;;
36747;SDS011;22716;51.556;5.080;2024-03-07T10:51:00;22.63;;;13.55;;
36747;SDS011;22716;51.556;5.080;2024-03-07T10:53:39;18.73;;;13.87;;
36747;SDS011;22716;51.556;5.080;2024-03-07T10:56:22;22.50;;;14.57;;
36747;SDS011;22716;51.556;5.080;2024-03-07T10:59:04;20.08;;;12.85;;
36747;SDS011;22716;51.556;5.080;2024-03-07T11:01:42;22.52;;;14.57;;
36747;SDS011;22716;51.556;5.080;2024-03-07T11:04:19;20.42;;;14.32;;
36747;SDS011;22716;51.556;5.080;2024-03-07T11:06:50;23.42;;;14.98;;
36747;SDS011;22716;51.556;5.080;2024-03-07T11:09:22;22.25;;;14.52;;
36747;SDS011;22716;51.556;5.080;2024-03-07T11:11:54;24.70;;;15.53;;
36747;SDS011;22716;51.556;5.080;2024-03-07T11:14:25;23.92;;;15.23;;
36747;SDS011;22716;51.556;5.080;2024-03-07T11:16:57;27.57;;;15.93;;
36747;SDS011;22716;51.556;5.080;2024-03-07T11:19:27;19.63;;;15.03;;
36747;SDS011;22716;51.556;5.080;2024-03-07T11:22:01;24.13;;;15.90;;
36747;SDS011;22716;51.556;5.080;2024-03-07T11:24:42;23.15;;;16.10;;
36747;SDS011;22716;51.556;5.080;2024-03-07T11:27:11;20.90;;;15.00;;
36747;SDS011;22716;51.556;5.080;2024-03-07T11:29:41;26.13;;;15.93;;
36747;SDS011;22716;51.556;5.080;2024-03-07T11:32:08;24.55;;;15.60;;
36747;SDS011;22716;51.556;5.080;2024-03-07T11:34:39;24.27;;;16.13;;
36747;SDS011;22716;51.556;5.080;2024-03-07T11:37:16;23.35;;;15.90;;
36747;SDS011;22716;51.556;5.080;2024-03-07T11:39:50;20.95;;;16.23;;
36747;SDS011;22716;51.556;5.080;2024-03-07T11:42:23;23.52;;;15.90;;
36747;SDS011;22716;51.556;5.080;2024-03-07T11:44:54;21.17;;;15.07;;
36747;SDS011;22716;51.556;5.080;2024-03-07T11:47:24;21.85;;;14.73;;
36747;SDS011;22716;51.556;5.080;2024-03-07T11:49:54;22.88;;;14.80;;
36747;SDS011;22716;51.556;5.080;2024-03-07T11:52:23;22.83;;;15.55;;
36747;SDS011;22716;51.556;5.080;2024-03-07T11:54:55;22.85;;;15.50;;
36747;SDS011;22716;51.556;5.080;2024-03-07T11:57:29;21.20;;;14.73;;
36747;SDS011;22716;51.556;5.080;2024-03-07T12:00:00;22.85;;;15.45;;
36747;SDS011;22716;51.556;5.080;2024-03-07T12:02:33;26.80;;;15.85;;
36747;SDS011;22716;51.556;5.080;2024-03-07T12:05:02;21.08;;;15.70;;
36747;SDS011;22716;51.556;5.080;2024-03-07T12:07:32;20.27;;;14.27;;
36747;SDS011;22716;51.556;5.080;2024-03-07T12:10:04;21.58;;;14.75;;
36747;SDS011;22716;51.556;5.080;2024-03-07T12:12:34;22.00;;;14.98;;
36747;SDS011;22716;51.556;5.080;2024-03-07T12:15:04;23.03;;;13.00;;
36747;SDS011;22716;51.556;5.080;2024-03-07T12:17:41;18.77;;;13.40;;
36747;SDS011;22716;51.556;5.080;2024-03-07T12:20:11;17.25;;;12.60;;
36747;SDS011;22716;51.556;5.080;2024-03-07T12:22:56;17.75;;;13.30;;
36747;SDS011;22716;51.556;5.080;2024-03-07T12:25:29;17.15;;;13.23;;
36747;SDS011;22716;51.556;5.080;2024-03-07T12:28:01;19.30;;;14.00;;
36747;SDS011;22716;51.556;5.080;2024-03-07T12:30:32;18.98;;;13.32;;
36747;SDS011;22716;51.556;5.080;2024-03-07T12:33:05;18.17;;;13.10;;
36747;SDS011;22716;51.556;5.080;2024-03-07T12:35:35;20.73;;;13.23;;
36747;SDS011;22716;51.556;5.080;2024-03-07T12:38:05;18.83;;;13.43;;
36747;SDS011;22716;51.556;5.080;2024-03-07T12:40:38;30.67;;;12.75;;
36747;SDS011;22716;51.556;5.080;2024-03-07T12:43:14;19.02;;;13.30;;
36747;SDS011;22716;51.556;5.080;2024-03-07T12:45:45;17.92;;;12.38;;
36747;SDS011;22716;51.556;5.080;2024-03-07T12:48:16;20.65;;;11.80;;
36747;SDS011;22716;51.556;5.080;2024-03-07T12:50:46;16.85;;;11.85;;
36747;SDS011;22716;51.556;5.080;2024-03-07T12:53:18;27.30;;;14.60;;
36747;SDS011;22716;51.556;5.080;2024-03-07T12:55:50;17.58;;;12.25;;
36747;SDS011;22716;51.556;5.080;2024-03-07T12:58:19;18.58;;;12.00;;
36747;SDS011;22716;51.556;5.080;2024-03-07T13:00:51;19.80;;;12.82;;
36747;SDS011;22716;51.556;5.080;2024-03-07T13:03:20;21.98;;;12.10;;
36747;SDS011;22716;51.556;5.080;2024-03-07T13:05:53;18.30;;;11.05;;
36747;SDS011;22716;51.556;5.080;2024-03-07T13:08:26;19.05;;;12.57;;
36747;SDS011;22716;51.556;5.080;2024-03-07T13:10:58;18.88;;;12.13;;
36747;SDS011;22716;51.556;5.080;2024-03-07T13:13:27;21.10;;;13.57;;
36747;SDS011;22716;51.556;5.080;2024-03-07T13:15:56;18.67;;;13.32;;
36747;SDS011;22716;51.556;5.080;2024-03-07T13:18:25;17.80;;;12.07;;
36747;SDS011;22716;51.556;5.080;2024-03-07T13:20:53;17.45;;;12.30;;
36747;SDS011;22716;51.556;5.080;2024-03-07T13:23:22;26.42;;;13.50;;
36747;SDS011;22716;51.556;5.080;2024-03-07T13:25:53;19.13;;;13.30;;
36747;SDS011;22716;51.556;5.080;2024-03-07T13:28:24;20.40;;;13.88;;
36747;SDS011;22716;51.556;5.080;2024-03-07T13:30:55;15.82;;;12.10;;
36747;SDS011;22716;51.556;5.080;2024-03-07T13:33:23;16.98;;;12.48;;
36747;SDS011;22716;51.556;5.080;2024-03-07T13:35:52;18.08;;;12.40;;
36747;SDS011;22716;51.556;5.080;2024-03-07T13:38:22;22.98;;;13.80;;
36747;SDS011;22716;51.556;5.080;2024-03-07T13:40:51;18.13;;;12.80;;
36747;SDS011;22716;51.556;5.080;2024-03-07T13:43:20;16.80;;;11.70;;
36747;SDS011;22716;51.556;5.080;2024-03-07T13:45:51;17.27;;;12.10;;
36747;SDS011;22716;51.556;5.080;2024-03-07T13:48:20;19.70;;;12.32;;
36747;SDS011;22716;51.556;5.080;2024-03-07T13:50:49;17.58;;;12.45;;
36747;SDS011;22716;51.556;5.080;2024-03-07T13:53:19;17.35;;;12.13;;
36747;SDS011;22716;51.556;5.080;2024-03-07T13:56:06;16.58;;;11.57;;
36747;SDS011;22716;51.556;5.080;2024-03-07T14:02:18;26.40;;;11.93;;
36747;SDS011;22716;51.556;5.080;2024-03-07T14:05:26;17.80;;;12.30;;
36747;SDS011;22716;51.556;5.080;2024-03-07T14:11:28;15.73;;;11.77;;
36747;SDS011;22716;51.556;5.080;2024-03-07T14:14:30;20.73;;;12.38;;
36747;SDS011;22716;51.556;5.080;2024-03-07T14:20:50;18.50;;;12.23;;
36747;SDS011;22716;51.556;5.080;2024-03-07T14:23:54;18.83;;;12.98;;
36747;SDS011;22716;51.556;5.080;2024-03-07T14:26:56;20.73;;;12.93;;
36747;SDS011;22716;51.556;5.080;2024-03-07T14:29:48;17.48;;;11.43;;
36747;SDS011;22716;51.556;5.080;2024-03-07T14:32:29;17.90;;;12.47;;
36747;SDS011;22716;51.556;5.080;2024-03-07T14:35:01;20.38;;;12.73;;
36747;SDS011;22716;51.556;5.080;2024-03-07T14:37:45;18.50;;;11.35;;
36747;SDS011;22716;51.556;5.080;2024-03-07T14:40:18;16.90;;;12.00;;
36747;SDS011;22716;51.556;5.080;2024-03-07T14:42:47;17.45;;;12.35;;
36747;SDS011;22716;51.556;5.080;2024-03-07T14:45:19;19.27;;;13.40;;
36747;SDS011;22716;51.556;5.080;2024-03-07T14:47:50;19.30;;;13.18;;
36747;SDS011;22716;51.556;5.080;2024-03-07T14:50:21;18.88;;;12.07;;
36747;SDS011;22716;51.556;5.080;2024-03-07T14:52:54;19.30;;;12.32;;